Time;durP1;ratioP1;P1;durP2;ratioP2;P2;SDS_P1;SDS_P2;PMS_P1;PMS_P2;Temp;Humidity;BMP_temperature;BMP_pressure;BME280_temperature;BME280_humidity;BME280_pressure;Samples;Min_cycle;Max_cycle;Signal;HPM_P1;HPM_P2
2022/06/22 00:00:03;;;;;;;0.10;0.10;;;;;;;;;;4933240;29;20536;-58
2022/06/22 00:02:30;;;;;;;0.10;0.10;;;;;;;;;;4931656;29;20026;-59
2022/06/22 00:05:00;;;;;;;0.20;0.20;;;;;;;;;;4934129;29;20106;-59
2022/06/22 00:07:28;;;;;;;0.00;0.00;;;;;;;;;;4934913;29;20067;-59
2022/06/22 00:10:02;;;;;;;0.00;0.00;;;;;;;;;;4934204;29;20078;-59
2022/06/22 00:12:30;;;;;;;0.00;0.00;;;;;;;;;;4932942;29;20027;-60
2022/06/22 00:14:56;;;;;;;0.20;0.10;;;;;;;;;;4931374;29;20055;-59
2022/06/22 00:17:35;;;;;;;0.10;0.10;;;;;;;;;;4934338;29;20043;-58
2022/06/22 00:20:11;;;;;;;0.22;0.22;;;;;;;;;;4933176;29;20024;-59
2022/06/22 00:22:47;;;;;;;0.00;0.00;;;;;;;;;;4933165;29;20031;-59
2022/06/22 00:25:19;;;;;;;0.05;0.05;;;;;;;;;;4932417;29;20030;-60
2022/06/22 00:27:45;;;;;;;0.10;0.10;;;;;;;;;;4933651;29;20028;-58
2022/06/22 00:30:28;;;;;;;0.00;0.00;;;;;;;;;;4934042;29;20023;-59
2022/06/22 00:32:58;;;;;;;0.00;0.00;;;;;;;;;;4933798;29;20437;-59
2022/06/22 00:35:34;;;;;;;0.00;0.00;;;;;;;;;;4934378;29;20032;-59
2022/06/22 00:37:59;;;;;;;0.00;0.00;;;;;;;;;;4928447;29;20028;-58
2022/06/22 00:40:25;;;;;;;0.75;0.75;;;;;;;;;;4931144;29;20043;-58
2022/06/22 00:42:51;;;;;;;0.00;0.00;;;;;;;;;;4932661;29;20027;-59
2022/06/22 00:45:24;;;;;;;0.00;0.00;;;;;;;;;;4932226;29;20122;-59
2022/06/22 00:48:04;;;;;;;0.00;0.00;;;;;;;;;;4931836;29;20045;-59
2022/06/22 00:50:38;;;;;;;0.00;0.00;;;;;;;;;;4931301;29;20039;-58
2022/06/22 00:53:05;;;;;;;0.00;0.00;;;;;;;;;;4933005;29;20059;-59
2022/06/22 00:55:36;;;;;;;0.00;0.00;;;;;;;;;;4932864;29;20555;-60
2022/06/22 00:58:07;;;;;;;0.00;0.00;;;;;;;;;;4933464;29;20272;-58
2022/06/22 01:00:33;;;;;;;0.00;0.00;;;;;;;;;;4930969;29;20028;-59
2022/06/22 01:03:03;;;;;;;0.00;0.00;;;;;;;;;;4933535;29;20035;-58
2022/06/22 01:05:41;;;;;;;0.10;0.10;;;;;;;;;;4933677;29;20031;-59
2022/06/22 01:08:06;;;;;;;0.00;0.00;;;;;;;;;;4932411;29;20024;-59
2022/06/22 01:10:37;;;;;;;0.10;0.10;;;;;;;;;;4933999;29;20031;-59
2022/06/22 01:13:07;;;;;;;0.25;0.25;;;;;;;;;;4932383;29;20032;-59
2022/06/22 01:15:56;;;;;;;0.00;0.00;;;;;;;;;;4932561;29;20023;-58
2022/06/22 01:18:27;;;;;;;0.28;0.28;;;;;;;;;;4919950;29;20444;-59
2022/06/22 01:20:52;;;;;;;0.00;0.00;;;;;;;;;;4931981;29;20027;-59
2022/06/22 01:23:24;;;;;;;0.00;0.00;;;;;;;;;;4933223;29;20113;-58
2022/06/22 01:25:51;;;;;;;0.00;0.00;;;;;;;;;;4932386;29;20023;-58
2022/06/22 01:28:17;;;;;;;0.00;0.00;;;;;;;;;;4931951;29;20044;-58
2022/06/22 01:30:43;;;;;;;0.00;0.00;;;;;;;;;;4930019;29;20058;-59
2022/06/22 01:33:15;;;;;;;0.25;0.15;;;;;;;;;;4932776;29;20020;-60
2022/06/22 01:35:41;;;;;;;0.00;0.00;;;;;;;;;;4933245;29;20042;-60
2022/06/22 01:38:22;;;;;;;0.43;0.43;;;;;;;;;;4932845;29;20032;-59
2022/06/22 01:40:59;;;;;;;0.00;0.00;;;;;;;;;;4932477;29;20425;-57
2022/06/22 01:43:28;;;;;;;0.30;0.15;;;;;;;;;;4927897;29;20090;-59
2022/06/22 01:45:59;;;;;;;0.05;0.05;;;;;;;;;;4929534;29;20055;-59
2022/06/22 01:48:24;;;;;;;0.00;0.00;;;;;;;;;;4927488;29;20046;-59
2022/06/22 01:51:12;;;;;;;0.90;0.43;;;;;;;;;;4929826;29;20016;-59
2022/06/22 01:53:40;;;;;;;0.00;0.00;;;;;;;;;;4915708;29;20036;-60
2022/06/22 01:56:21;;;;;;;0.00;0.00;;;;;;;;;;4927145;29;20020;-59
2022/06/22 01:58:53;;;;;;;0.85;0.75;;;;;;;;;;4932432;29;20043;-60
2022/06/22 02:01:22;;;;;;;0.00;0.00;;;;;;;;;;4932728;29;20035;-60
2022/06/22 02:04:01;;;;;;;0.75;0.75;;;;;;;;;;4932445;29;20023;-59
2022/06/22 02:09:23;;;;;;;0.00;0.00;;;;;;;;;;4931231;29;20044;-59
2022/06/22 02:11:51;;;;;;;0.00;0.00;;;;;;;;;;4932416;29;20509;-59
2022/06/22 02:14:21;;;;;;;0.00;0.00;;;;;;;;;;4930114;29;20517;-59
2022/06/22 02:16:56;;;;;;;0.05;0.05;;;;;;;;;;4930729;29;20031;-59
2022/06/22 02:19:22;;;;;;;0.00;0.00;;;;;;;;;;4932340;29;20282;-59
2022/06/22 02:21:52;;;;;;;0.00;0.00;;;;;;;;;;4932219;29;20038;-58
2022/06/22 02:24:20;;;;;;;0.00;0.00;;;;;;;;;;4932202;29;20042;-59
2022/06/22 02:26:45;;;;;;;0.00;0.00;;;;;;;;;;4931084;29;20378;-59
2022/06/22 02:29:11;;;;;;;0.00;0.00;;;;;;;;;;4931522;29;20034;-59
2022/06/22 02:31:37;;;;;;;0.00;0.00;;;;;;;;;;4930658;29;20028;-59
2022/06/22 02:34:02;;;;;;;0.00;0.00;;;;;;;;;;4931687;29;20346;-59
2022/06/22 02:36:31;;;;;;;0.00;0.00;;;;;;;;;;4932043;29;20035;-60
2022/06/22 02:38:58;;;;;;;0.00;0.00;;;;;;;;;;4931795;29;20495;-59
2022/06/22 02:44:30;;;;;;;0.10;0.10;;;;;;;;;;4930541;29;20091;-59
2022/06/22 02:47:16;;;;;;;0.28;0.28;;;;;;;;;;4930098;29;20397;-59
2022/06/22 02:49:44;;;;;;;0.00;0.00;;;;;;;;;;4931067;29;20390;-59
2022/06/22 02:52:10;;;;;;;0.00;0.00;;;;;;;;;;4931365;29;20028;-59
2022/06/22 02:54:39;;;;;;;0.00;0.00;;;;;;;;;;4931285;29;20381;-58
2022/06/22 02:57:10;;;;;;;0.00;0.00;;;;;;;;;;4930559;29;20110;-59
2022/06/22 02:59:36;;;;;;;0.00;0.00;;;;;;;;;;4930501;29;20038;-59
2022/06/22 03:02:01;;;;;;;0.00;0.00;;;;;;;;;;4930773;29;20019;-60
2022/06/22 03:04:26;;;;;;;0.00;0.00;;;;;;;;;;4931676;29;20028;-60
2022/06/22 03:06:52;;;;;;;0.00;0.00;;;;;;;;;;4912823;29;20067;-60
2022/06/22 03:09:18;;;;;;;0.00;0.00;;;;;;;;;;4928673;29;20031;-59
2022/06/22 03:11:45;;;;;;;0.00;0.00;;;;;;;;;;4929394;29;20031;-59
2022/06/22 03:14:29;;;;;;;0.10;0.10;;;;;;;;;;4929975;29;20374;-60
2022/06/22 03:16:57;;;;;;;0.00;0.00;;;;;;;;;;4930952;29;20115;-59
2022/06/22 03:19:26;;;;;;;0.00;0.00;;;;;;;;;;4930527;29;20353;-59
2022/06/22 03:21:51;;;;;;;0.00;0.00;;;;;;;;;;4929049;29;20090;-59
2022/06/22 03:24:17;;;;;;;0.00;0.00;;;;;;;;;;4930770;29;20023;-60
2022/06/22 03:26:46;;;;;;;0.00;0.00;;;;;;;;;;4931372;29;20034;-60
2022/06/22 03:29:20;;;;;;;0.00;0.00;;;;;;;;;;4930943;29;20358;-59
2022/06/22 03:31:52;;;;;;;0.30;0.30;;;;;;;;;;4929550;29;20032;-59
2022/06/22 03:34:43;;;;;;;0.10;0.10;;;;;;;;;;4929897;29;20023;-59
2022/06/22 03:37:15;;;;;;;0.00;0.00;;;;;;;;;;4926368;29;20406;-59
2022/06/22 03:39:44;;;;;;;0.00;0.00;;;;;;;;;;4929991;29;20027;-59
2022/06/22 03:42:19;;;;;;;0.30;0.30;;;;;;;;;;4912884;29;20062;-60
2022/06/22 03:44:51;;;;;;;0.00;0.00;;;;;;;;;;4929579;29;20016;-60
2022/06/22 03:47:19;;;;;;;0.00;0.00;;;;;;;;;;4913661;29;20078;-60
2022/06/22 03:49:49;;;;;;;0.00;0.00;;;;;;;;;;4931057;29;20027;-59
2022/06/22 03:52:33;;;;;;;0.00;0.00;;;;;;;;;;4929473;29;20031;-59
2022/06/22 03:55:03;;;;;;;0.85;0.15;;;;;;;;;;4928365;29;20083;-59
2022/06/22 03:57:31;;;;;;;0.00;0.00;;;;;;;;;;4930880;29;20110;-59
2022/06/22 03:59:56;;;;;;;0.00;0.00;;;;;;;;;;4928076;29;20512;-59
2022/06/22 04:02:24;;;;;;;0.00;0.00;;;;;;;;;;4930800;29;20035;-60
2022/06/22 04:04:51;;;;;;;0.00;0.00;;;;;;;;;;4928543;29;20050;-60
2022/06/22 04:07:17;;;;;;;0.00;0.00;;;;;;;;;;4930438;29;20020;-60
2022/06/22 04:09:47;;;;;;;0.00;0.00;;;;;;;;;;4929180;29;20023;-58
2022/06/22 04:12:18;;;;;;;0.00;0.00;;;;;;;;;;4930399;29;20054;-59
2022/06/22 04:14:49;;;;;;;0.00;0.00;;;;;;;;;;4929240;29;20051;-59
2022/06/22 04:17:26;;;;;;;0.00;0.00;;;;;;;;;;4928587;29;20682;-59
2022/06/22 04:20:00;;;;;;;0.00;0.00;;;;;;;;;;4932076;29;20038;-60
2022/06/22 04:22:27;;;;;;;0.75;0.75;;;;;;;;;;4929080;29;20036;-59
2022/06/22 04:25:01;;;;;;;0.00;0.00;;;;;;;;;;4927834;29;20512;-60
2022/06/22 04:27:35;;;;;;;0.43;0.43;;;;;;;;;;4931411;29;20031;-59
2022/06/22 04:30:05;;;;;;;0.00;0.00;;;;;;;;;;4933292;29;20050;-59
2022/06/22 04:32:35;;;;;;;0.20;0.20;;;;;;;;;;4930270;29;20032;-59
2022/06/22 04:35:00;;;;;;;0.03;0.03;;;;;;;;;;4934184;29;20036;-60
2022/06/22 04:37:25;;;;;;;0.00;0.00;;;;;;;;;;4931884;29;20517;-59
2022/06/22 04:39:53;;;;;;;0.00;0.00;;;;;;;;;;4928811;29;20397;-59
2022/06/22 04:42:18;;;;;;;0.00;0.00;;;;;;;;;;4928967;29;20024;-61
2022/06/22 04:44:46;;;;;;;0.00;0.00;;;;;;;;;;4929851;29;20465;-59
2022/06/22 04:47:21;;;;;;;0.00;0.00;;;;;;;;;;4928884;29;21838;-60
2022/06/22 04:49:51;;;;;;;0.00;0.00;;;;;;;;;;4932861;29;20059;-60
2022/06/22 04:52:18;;;;;;;0.00;0.00;;;;;;;;;;4913916;29;20032;-59
2022/06/22 04:54:44;;;;;;;0.00;0.00;;;;;;;;;;4930485;29;20115;-60
2022/06/22 04:57:20;;;;;;;0.00;0.00;;;;;;;;;;4907875;29;20158;-60
2022/06/22 04:59:46;;;;;;;0.10;0.10;;;;;;;;;;4929439;29;20102;-60
2022/06/22 05:02:12;;;;;;;0.20;0.20;;;;;;;;;;4927634;29;20115;-60
2022/06/22 05:04:39;;;;;;;0.00;0.00;;;;;;;;;;4931723;29;20028;-60
2022/06/22 05:07:19;;;;;;;0.00;0.00;;;;;;;;;;4912720;29;20027;-60
2022/06/22 05:09:59;;;;;;;0.00;0.00;;;;;;;;;;4932229;29;20015;-59
2022/06/22 05:12:25;;;;;;;0.00;0.00;;;;;;;;;;4930380;29;20024;-60
2022/06/22 05:14:52;;;;;;;0.00;0.00;;;;;;;;;;4930748;29;20020;-60
2022/06/22 05:17:17;;;;;;;0.20;0.20;;;;;;;;;;4928801;29;20032;-60
2022/06/22 05:19:44;;;;;;;0.00;0.00;;;;;;;;;;4930885;29;20028;-59
2022/06/22 05:22:13;;;;;;;0.03;0.00;;;;;;;;;;4928169;29;20305;-59
2022/06/22 05:24:43;;;;;;;0.73;0.73;;;;;;;;;;4929962;29;20086;-59
2022/06/22 05:27:11;;;;;;;0.70;0.43;;;;;;;;;;4921464;29;20060;-59
2022/06/22 05:29:41;;;;;;;0.20;0.20;;;;;;;;;;4927637;29;20020;-60
2022/06/22 05:32:09;;;;;;;0.00;0.00;;;;;;;;;;4928898;29;20059;-59
2022/06/22 05:34:36;;;;;;;0.00;0.00;;;;;;;;;;4925486;29;20741;-60
2022/06/22 05:37:05;;;;;;;0.30;0.15;;;;;;;;;;4927991;29;20562;-60
2022/06/22 05:39:32;;;;;;;0.30;0.30;;;;;;;;;;4933119;29;20046;-60
2022/06/22 05:41:58;;;;;;;2.13;2.13;;;;;;;;;;4928759;29;20028;-59
2022/06/22 05:44:23;;;;;;;0.00;0.00;;;;;;;;;;4930411;29;20016;-58
2022/06/22 05:46:50;;;;;;;0.00;0.00;;;;;;;;;;4923710;29;20056;-59
2022/06/22 05:49:16;;;;;;;0.00;0.00;;;;;;;;;;4927976;29;20111;-59
2022/06/22 05:52:00;;;;;;;0.00;0.00;;;;;;;;;;4927591;29;20110;-58
2022/06/22 05:54:28;;;;;;;0.00;0.00;;;;;;;;;;4924685;29;20370;-58
2022/06/22 05:57:16;;;;;;;0.00;0.00;;;;;;;;;;4923545;29;20027;-59
2022/06/22 05:59:42;;;;;;;1.45;1.15;;;;;;;;;;4916238;29;20466;-58
2022/06/22 06:02:07;;;;;;;0.00;0.00;;;;;;;;;;4927066;29;20110;-58
2022/06/22 06:04:40;;;;;;;0.00;0.00;;;;;;;;;;4930945;29;20106;-59
2022/06/22 06:07:15;;;;;;;0.00;0.00;;;;;;;;;;4928247;29;20264;-60
2022/06/22 06:09:40;;;;;;;0.00;0.00;;;;;;;;;;4922278;29;20434;-59
2022/06/22 06:12:13;;;;;;;0.00;0.00;;;;;;;;;;4931383;29;20102;-60
2022/06/22 06:14:40;;;;;;;0.00;0.00;;;;;;;;;;4922111;29;21253;-60
2022/06/22 06:17:09;;;;;;;0.00;0.00;;;;;;;;;;4928909;29;20050;-60
2022/06/22 06:19:44;;;;;;;0.00;0.00;;;;;;;;;;4929532;29;20031;-59
2022/06/22 06:22:10;;;;;;;0.00;0.00;;;;;;;;;;4924630;29;20015;-58
2022/06/22 06:24:36;;;;;;;0.00;0.00;;;;;;;;;;4927979;29;20083;-60
2022/06/22 06:30:07;;;;;;;0.00;0.00;;;;;;;;;;4930934;29;20086;-60
2022/06/22 06:32:41;;;;;;;0.00;0.00;;;;;;;;;;4924485;29;20087;-60
2022/06/22 06:35:15;;;;;;;0.00;0.00;;;;;;;;;;4925941;29;20880;-60
2022/06/22 06:37:44;;;;;;;0.00;0.00;;;;;;;;;;4922050;29;20027;-60
2022/06/22 06:40:15;;;;;;;0.00;0.00;;;;;;;;;;4909554;29;20036;-60
2022/06/22 06:42:44;;;;;;;0.05;0.05;;;;;;;;;;4926034;29;20040;-59
2022/06/22 06:48:11;;;;;;;0.00;0.00;;;;;;;;;;4928139;29;20124;-59
2022/06/22 06:50:41;;;;;;;0.00;0.00;;;;;;;;;;4923698;29;20024;-60
2022/06/22 06:53:33;;;;;;;0.00;0.00;;;;;;;;;;4925256;29;20040;-60
2022/06/22 06:56:01;;;;;;;0.00;0.00;;;;;;;;;;4906300;29;20042;-60
2022/06/22 06:58:27;;;;;;;0.00;0.00;;;;;;;;;;4922642;29;20528;-61
2022/06/22 07:00:53;;;;;;;0.00;0.00;;;;;;;;;;4927456;29;20508;-61
2022/06/22 07:03:20;;;;;;;3.53;0.22;;;;;;;;;;4926332;29;20031;-60
2022/06/22 07:05:46;;;;;;;0.00;0.00;;;;;;;;;;4925532;29;20059;-60
2022/06/22 07:08:19;;;;;;;0.30;0.30;;;;;;;;;;4926807;29;20032;-60
2022/06/22 07:10:48;;;;;;;0.10;0.10;;;;;;;;;;4923441;29;20027;-60
2022/06/22 07:13:18;;;;;;;0.00;0.00;;;;;;;;;;4925010;29;20032;-60
2022/06/22 07:15:46;;;;;;;0.77;0.57;;;;;;;;;;4923860;29;20027;-60
2022/06/22 07:18:18;;;;;;;0.00;0.00;;;;;;;;;;4920476;29;20032;-60
2022/06/22 07:20:46;;;;;;;0.00;0.00;;;;;;;;;;4926598;29;20441;-60
2022/06/22 07:23:11;;;;;;;0.00;0.00;;;;;;;;;;4925248;29;20038;-59
2022/06/22 07:25:44;;;;;;;0.00;0.00;;;;;;;;;;4925202;29;20115;-60
2022/06/22 07:28:42;;;;;;;0.00;0.00;;;;;;;;;;4921364;29;20031;-60
2022/06/22 07:31:15;;;;;;;0.35;0.35;;;;;;;;;;4908280;29;20388;-60
2022/06/22 07:33:44;;;;;;;0.00;0.00;;;;;;;;;;4925058;29;20032;-60
2022/06/22 07:36:21;;;;;;;0.00;0.00;;;;;;;;;;4924106;29;20110;-59
2022/06/22 07:38:49;;;;;;;0.57;0.57;;;;;;;;;;4925248;29;20034;-60
2022/06/22 07:41:19;;;;;;;0.00;0.00;;;;;;;;;;4922814;29;20538;-60
2022/06/22 07:43:45;;;;;;;1.65;0.93;;;;;;;;;;4923682;29;20560;-59
2022/06/22 07:46:16;;;;;;;0.00;0.00;;;;;;;;;;4921827;29;20139;-59
2022/06/22 07:48:45;;;;;;;0.00;0.00;;;;;;;;;;4924543;29;20031;-61
2022/06/22 07:51:14;;;;;;;0.00;0.00;;;;;;;;;;4922014;29;20035;-59
2022/06/22 07:53:39;;;;;;;0.00;0.00;;;;;;;;;;4928679;29;20044;-60
2022/06/22 07:56:23;;;;;;;0.00;0.00;;;;;;;;;;4929037;29;20023;-60
2022/06/22 07:59:01;;;;;;;0.00;0.00;;;;;;;;;;4931128;29;20267;-61
2022/06/22 08:01:29;;;;;;;0.00;0.00;;;;;;;;;;4935551;29;20560;-60
2022/06/22 08:04:04;;;;;;;0.30;0.30;;;;;;;;;;4935063;29;20040;-61
2022/06/22 08:06:33;;;;;;;0.00;0.00;;;;;;;;;;4957535;29;20015;-62
2022/06/22 08:09:14;;;;;;;0.00;0.00;;;;;;;;;;4939890;29;20110;-63
2022/06/22 08:11:41;;;;;;;0.60;0.60;;;;;;;;;;4941947;29;20472;-63
2022/06/22 08:14:06;;;;;;;0.00;0.00;;;;;;;;;;4955874;29;20118;-62
2022/06/22 08:16:43;;;;;;;0.00;0.00;;;;;;;;;;4926482;29;20180;-62
2022/06/22 08:19:08;;;;;;;0.00;0.00;;;;;;;;;;4920210;29;20035;-62
2022/06/22 08:21:36;;;;;;;0.00;0.00;;;;;;;;;;4919918;29;20103;-63
2022/06/22 08:24:03;;;;;;;0.08;0.08;;;;;;;;;;4920048;29;20540;-62
2022/06/22 08:26:30;;;;;;;0.00;0.00;;;;;;;;;;4925259;29;20386;-63
2022/06/22 08:28:55;;;;;;;0.00;0.00;;;;;;;;;;4919890;29;20016;-62
2022/06/22 08:31:20;;;;;;;3.00;0.75;;;;;;;;;;4924900;29;20041;-63
2022/06/22 08:33:56;;;;;;;0.50;0.50;;;;;;;;;;4957993;29;20461;-62
2022/06/22 08:36:24;;;;;;;0.00;0.00;;;;;;;;;;4922538;29;20362;-62
2022/06/22 08:38:57;;;;;;;0.35;0.35;;;;;;;;;;4939143;29;20424;-62
2022/06/22 08:41:41;;;;;;;0.17;0.17;;;;;;;;;;4930582;29;20035;-62
2022/06/22 08:44:18;;;;;;;0.00;0.00;;;;;;;;;;4919836;29;20028;-62
2022/06/22 08:46:43;;;;;;;0.52;0.50;;;;;;;;;;4922931;29;20046;-62
2022/06/22 08:49:08;;;;;;;0.00;0.00;;;;;;;;;;4938714;29;20032;-62
2022/06/22 08:51:34;;;;;;;0.00;0.00;;;;;;;;;;4953847;29;20258;-62
2022/06/22 08:54:05;;;;;;;0.00;0.00;;;;;;;;;;4947630;29;20098;-63
2022/06/22 08:56:43;;;;;;;0.15;0.15;;;;;;;;;;4938979;29;20035;-62
2022/06/22 08:59:08;;;;;;;;;;;;;;;;;;4943244;29;20043;-62
2022/06/22 09:01:44;;;;;;;0.10;0.10;;;;;;;;;;4921114;29;19929;-62
2022/06/22 09:04:18;;;;;;;0.00;0.00;;;;;;;;;;4937490;29;20016;-63
2022/06/22 09:06:43;;;;;;;0.00;0.00;;;;;;;;;;4953254;29;20457;-62
2022/06/22 09:09:08;;;;;;;0.00;0.00;;;;;;;;;;4933411;29;20075;-63
2022/06/22 09:11:49;;;;;;;0.00;0.00;;;;;;;;;;4935399;29;20283;-64
2022/06/22 09:14:20;;;;;;;0.00;0.00;;;;;;;;;;4935399;29;20078;-62
2022/06/22 09:16:48;;;;;;;0.00;0.00;;;;;;;;;;4938270;29;20031;-63
2022/06/22 09:19:26;;;;;;;0.32;0.32;;;;;;;;;;4934582;29;20438;-62
2022/06/22 09:22:09;;;;;;;0.00;0.00;;;;;;;;;;4933075;29;20028;-63
2022/06/22 09:24:34;;;;;;;0.00;0.00;;;;;;;;;;4938032;29;20020;-62
2022/06/22 09:27:00;;;;;;;1.50;0.82;;;;;;;;;;4948648;29;20035;-62
2022/06/22 09:29:33;;;;;;;0.03;0.03;;;;;;;;;;4935043;29;20385;-63
2022/06/22 09:32:10;;;;;;;0.00;0.00;;;;;;;;;;4952114;29;20310;-62
2022/06/22 09:34:48;;;;;;;0.00;0.00;;;;;;;;;;4953692;29;20032;-62
2022/06/22 09:37:22;;;;;;;0.00;0.00;;;;;;;;;;4923642;29;20110;-63
2022/06/22 09:39:47;;;;;;;0.50;0.17;;;;;;;;;;4957210;29;20369;-62
2022/06/22 09:42:12;;;;;;;0.00;0.00;;;;;;;;;;4955763;29;20031;-62
2022/06/22 09:44:37;;;;;;;0.00;0.00;;;;;;;;;;4947841;29;20032;-63
2022/06/22 09:47:12;;;;;;;0.00;0.00;;;;;;;;;;4933289;29;20123;-62
2022/06/22 09:49:45;;;;;;;0.00;0.00;;;;;;;;;;4927940;29;20024;-63
2022/06/22 09:52:16;;;;;;;0.00;0.00;;;;;;;;;;4926791;29;20372;-63
2022/06/22 09:57:57;;;;;;;0.00;0.00;;;;;;;;;;4930790;29;20041;-62
2022/06/22 10:00:35;;;;;;;0.00;0.00;;;;;;;;;;4945564;29;20039;-62
2022/06/22 10:03:06;;;;;;;0.00;0.00;;;;;;;;;;4913714;29;20028;-61
2022/06/22 10:05:31;;;;;;;0.00;0.00;;;;;;;;;;4927979;29;20040;-61
2022/06/22 10:08:05;;;;;;;0.00;0.00;;;;;;;;;;4929021;29;20019;-60
2022/06/22 10:10:48;;;;;;;0.00;0.00;;;;;;;;;;4931782;29;20307;-60
2022/06/22 10:13:32;;;;;;;0.05;0.05;;;;;;;;;;4925228;29;20393;-62
2022/06/22 10:16:04;;;;;;;0.00;0.00;;;;;;;;;;4935444;29;20024;-60
2022/06/22 10:18:44;;;;;;;0.00;0.00;;;;;;;;;;4929461;29;20036;-61
2022/06/22 10:21:10;;;;;;;0.00;0.00;;;;;;;;;;4930864;29;20043;-61
2022/06/22 10:23:42;;;;;;;0.20;0.20;;;;;;;;;;4927829;29;20056;-61
2022/06/22 10:26:12;;;;;;;0.00;0.00;;;;;;;;;;4925024;29;20256;-61
2022/06/22 10:29:04;;;;;;;0.10;0.10;;;;;;;;;;4933528;29;20051;-62
2022/06/22 10:31:48;;;;;;;0.00;0.00;;;;;;;;;;4926519;29;20047;-60
2022/06/22 10:34:32;;;;;;;0.05;0.05;;;;;;;;;;4921042;29;20031;-61
2022/06/22 10:37:09;;;;;;;0.00;0.00;;;;;;;;;;4926567;29;20083;-61
2022/06/22 10:39:37;;;;;;;0.00;0.00;;;;;;;;;;4931006;29;20043;-61
2022/06/22 10:45:08;;;;;;;0.00;0.00;;;;;;;;;;4930443;29;20205;-60
2022/06/22 10:47:51;;;;;;;0.22;0.22;;;;;;;;;;4928899;29;20469;-61
2022/06/22 10:50:43;;;;;;;0.13;0.13;;;;;;;;;;4925755;29;20389;-61
2022/06/22 10:53:26;;;;;;;0.00;0.00;;;;;;;;;;4913386;29;20138;-60
2022/06/22 10:55:52;;;;;;;0.00;0.00;;;;;;;;;;4927330;29;20287;-60
2022/06/22 10:58:38;;;;;;;0.00;0.00;;;;;;;;;;4930813;29;20032;-59
2022/06/22 11:01:12;;;;;;;0.00;0.00;;;;;;;;;;4929834;29;20030;-60
2022/06/22 11:03:50;;;;;;;0.32;0.32;;;;;;;;;;4923174;29;20478;-60
2022/06/22 11:06:34;;;;;;;0.00;0.00;;;;;;;;;;4929687;29;20035;-61
2022/06/22 11:09:17;;;;;;;0.00;0.00;;;;;;;;;;4931166;29;20024;-61
2022/06/22 11:12:08;;;;;;;0.15;0.15;;;;;;;;;;4933084;29;20075;-61
2022/06/22 11:14:50;;;;;;;0.38;0.38;;;;;;;;;;4925684;29;20020;-61
2022/06/22 11:17:24;;;;;;;0.00;0.00;;;;;;;;;;4920310;29;20110;-61
2022/06/22 11:20:03;;;;;;;0.00;0.00;;;;;;;;;;4925107;29;20015;-60
2022/06/22 11:22:48;;;;;;;0.55;0.30;;;;;;;;;;4926619;29;20024;-61
2022/06/22 11:25:13;;;;;;;0.00;0.00;;;;;;;;;;4922030;29;20043;-61
2022/06/22 11:30:52;;;;;;;0.00;0.00;;;;;;;;;;4925841;29;20075;-60
2022/06/22 11:33:17;;;;;;;0.25;0.25;;;;;;;;;;4926934;29;20103;-62
2022/06/22 11:35:42;;;;;;;0.00;0.00;;;;;;;;;;4924140;29;20437;-60
2022/06/22 11:38:26;;;;;;;0.35;0.35;;;;;;;;;;4918373;29;20027;-60
2022/06/22 11:41:00;;;;;;;0.00;0.00;;;;;;;;;;4925762;29;20034;-60
2022/06/22 11:43:43;;;;;;;0.08;0.08;;;;;;;;;;4924243;29;20501;-61
2022/06/22 11:46:47;;;;;;;0.25;0.25;;;;;;;;;;4927144;29;20052;-60
2022/06/22 11:49:31;;;;;;;0.03;0.03;;;;;;;;;;4853929;29;20436;-60
2022/06/22 11:52:02;;;;;;;0.00;0.00;;;;;;;;;;4853224;29;20515;-61
2022/06/22 11:54:50;;;;;;;0.00;0.00;;;;;;;;;;4853348;29;20084;-61
2022/06/22 11:57:21;;;;;;;0.00;0.00;;;;;;;;;;4852975;29;20041;-61
2022/06/22 11:59:58;;;;;;;0.00;0.00;;;;;;;;;;4838235;29;20064;-60
2022/06/22 12:02:42;;;;;;;0.00;0.00;;;;;;;;;;4851595;29;20037;-60
2022/06/22 12:05:13;;;;;;;0.00;0.00;;;;;;;;;;4852912;29;20156;-61
2022/06/22 12:07:57;;;;;;;0.05;0.05;;;;;;;;;;4853254;29;20085;-60
2022/06/22 12:10:41;;;;;;;0.00;0.00;;;;;;;;;;4852698;29;20057;-60
2022/06/22 12:13:18;;;;;;;0.08;0.08;;;;;;;;;;4852556;29;20166;-60
2022/06/22 12:16:02;;;;;;;0.00;0.00;;;;;;;;;;4850533;29;20910;-60
2022/06/22 12:18:27;;;;;;;0.00;0.00;;;;;;;;;;4849082;29;20476;-60
2022/06/22 12:21:12;;;;;;;0.00;0.00;;;;;;;;;;4910690;29;20051;-59
2022/06/22 12:23:51;;;;;;;0.13;0.03;;;;;;;;;;4926288;29;20024;-61
2022/06/22 12:26:31;;;;;;;0.00;0.00;;;;;;;;;;4923936;29;20102;-61
2022/06/22 12:29:15;;;;;;;0.00;0.00;;;;;;;;;;4923143;29;20027;-60
2022/06/22 12:31:43;;;;;;;0.00;0.00;;;;;;;;;;4927236;29;20023;-60
2022/06/22 12:34:09;;;;;;;2.28;2.17;;;;;;;;;;4920912;29;20062;-61
2022/06/22 12:36:39;;;;;;;0.00;0.00;;;;;;;;;;4923796;29;20028;-59
2022/06/22 12:39:07;;;;;;;0.00;0.00;;;;;;;;;;4925223;29;20031;-60
2022/06/22 12:41:41;;;;;;;0.00;0.00;;;;;;;;;;4928405;29;20078;-61
2022/06/22 12:44:25;;;;;;;0.15;0.15;;;;;;;;;;4927568;29;20036;-61
2022/06/22 12:46:53;;;;;;;0.00;0.00;;;;;;;;;;4926047;29;20552;-59
2022/06/22 12:49:18;;;;;;;0.00;0.00;;;;;;;;;;4923799;29;20521;-60
2022/06/22 12:51:44;;;;;;;0.00;0.00;;;;;;;;;;4927598;29;20044;-60
2022/06/22 12:54:13;;;;;;;0.00;0.00;;;;;;;;;;4928803;29;20378;-59
2022/06/22 12:56:38;;;;;;;0.00;0.00;;;;;;;;;;4928222;29;20283;-60
2022/06/22 12:59:13;;;;;;;0.00;0.00;;;;;;;;;;4926040;29;20070;-59
2022/06/22 13:01:38;;;;;;;0.00;0.00;;;;;;;;;;4924527;29;20252;-60
2022/06/22 13:04:13;;;;;;;0.55;0.55;;;;;;;;;;4926471;29;20023;-62
2022/06/22 13:06:41;;;;;;;0.00;0.00;;;;;;;;;;4926154;29;20035;-62
2022/06/22 13:09:06;;;;;;;0.00;0.00;;;;;;;;;;4926169;29;20020;-62
2022/06/22 13:11:32;;;;;;;0.00;0.00;;;;;;;;;;4925774;29;20038;-60
2022/06/22 13:14:16;;;;;;;0.43;0.38;;;;;;;;;;4922611;29;20114;-59
2022/06/22 13:16:41;;;;;;;0.00;0.00;;;;;;;;;;4923560;29;20031;-59
2022/06/22 13:19:16;;;;;;;0.00;0.00;;;;;;;;;;4922839;29;20761;-59
2022/06/22 13:21:54;;;;;;;0.00;0.00;;;;;;;;;;4922877;29;20429;-61
2022/06/22 13:24:19;;;;;;;0.00;0.00;;;;;;;;;;4923399;29;20135;-61
2022/06/22 13:26:45;;;;;;;0.17;0.05;;;;;;;;;;4923839;29;20280;-61
2022/06/22 13:29:28;;;;;;;0.00;0.00;;;;;;;;;;4907874;29;20062;-62
2022/06/22 13:31:56;;;;;;;0.00;0.00;;;;;;;;;;4924361;29;20103;-59
2022/06/22 13:34:24;;;;;;;0.00;0.00;;;;;;;;;;4922292;29;20679;-60
2022/06/22 13:37:00;;;;;;;0.00;0.00;;;;;;;;;;4924921;29;20050;-60
2022/06/22 13:39:32;;;;;;;0.00;0.00;;;;;;;;;;4920763;29;20028;-61
2022/06/22 13:42:17;;;;;;;0.00;0.00;;;;;;;;;;4921940;29;20024;-60
2022/06/22 13:44:42;;;;;;;0.03;0.03;;;;;;;;;;4923647;29;20356;-61
2022/06/22 13:47:19;;;;;;;0.00;0.00;;;;;;;;;;4923866;29;20044;-59
2022/06/22 13:50:20;;;;;;;0.13;0.13;;;;;;;;;;4921467;29;20794;-59
2022/06/22 13:52:47;;;;;;;0.00;0.00;;;;;;;;;;4921376;29;20078;-60
2022/06/22 13:55:27;;;;;;;0.00;0.00;;;;;;;;;;4925791;29;20064;-60
2022/06/22 13:57:59;;;;;;;0.00;0.00;;;;;;;;;;4922200;29;20103;-60
2022/06/22 14:00:26;;;;;;;0.00;0.00;;;;;;;;;;4925274;29;20091;-60
2022/06/22 14:03:02;;;;;;;0.00;0.00;;;;;;;;;;4926048;29;20031;-60
2022/06/22 14:05:31;;;;;;;0.20;0.20;;;;;;;;;;4923178;29;20048;-59
2022/06/22 14:08:16;;;;;;;0.00;0.00;;;;;;;;;;4924364;29;20106;-60
2022/06/22 14:11:04;;;;;;;0.00;0.00;;;;;;;;;;4924520;29;20134;-59
2022/06/22 14:13:48;;;;;;;0.00;0.00;;;;;;;;;;4914890;29;20036;-59
2022/06/22 14:16:20;;;;;;;0.00;0.00;;;;;;;;;;4923014;29;20032;-60
2022/06/22 14:19:00;;;;;;;0.00;0.00;;;;;;;;;;4919108;29;20031;-59
2022/06/22 14:21:40;;;;;;;0.17;0.03;;;;;;;;;;4921311;29;20031;-60
2022/06/22 14:24:15;;;;;;;2.15;1.95;;;;;;;;;;4921275;29;20548;-60
2022/06/22 14:26:40;;;;;;;0.00;0.00;;;;;;;;;;4923830;29;20047;-61
2022/06/22 14:29:05;;;;;;;0.00;0.00;;;;;;;;;;4917893;29;20066;-60
2022/06/22 14:31:35;;;;;;;0.00;0.00;;;;;;;;;;4924030;29;20035;-59
2022/06/22 14:34:01;;;;;;;0.28;0.28;;;;;;;;;;4926094;29;20267;-59
2022/06/22 14:36:35;;;;;;;0.68;0.52;;;;;;;;;;4924198;29;20025;-60
2022/06/22 14:39:20;;;;;;;0.00;0.00;;;;;;;;;;4915950;29;20083;-60
2022/06/22 14:41:52;;;;;;;0.00;0.00;;;;;;;;;;4924331;29;20143;-60
2022/06/22 14:44:20;;;;;;;0.00;0.00;;;;;;;;;;4922030;29;20023;-60
2022/06/22 14:47:04;;;;;;;0.00;0.00;;;;;;;;;;4924517;29;20075;-60
2022/06/22 14:49:35;;;;;;;0.05;0.05;;;;;;;;;;4924860;29;20044;-59
2022/06/22 14:52:07;;;;;;;0.03;0.03;;;;;;;;;;4919495;29;20454;-60
2022/06/22 14:54:51;;;;;;;0.60;0.60;;;;;;;;;;4923589;29;20031;-60
2022/06/22 14:57:21;;;;;;;0.00;0.00;;;;;;;;;;4921803;29;20132;-60
2022/06/22 15:00:05;;;;;;;0.10;0.10;;;;;;;;;;4922089;29;20053;-59
2022/06/22 15:02:33;;;;;;;1.60;0.93;;;;;;;;;;4922188;29;20036;-60
2022/06/22 15:05:04;;;;;;;2.23;0.83;;;;;;;;;;4925776;29;20470;-60
2022/06/22 15:07:32;;;;;;;0.98;0.90;;;;;;;;;;4923020;29;20080;-59
2022/06/22 15:09:57;;;;;;;0.15;0.15;;;;;;;;;;4922298;29;20526;-60
2022/06/22 15:15:11;;;;;;;0.22;0.22;;;;;;;;;;4925546;29;20318;-60
2022/06/22 15:17:54;;;;;;;0.00;0.00;;;;;;;;;;4927136;29;20031;-59
2022/06/22 15:20:29;;;;;;;0.00;0.00;;;;;;;;;;4928198;29;20295;-60
2022/06/22 15:22:54;;;;;;;0.00;0.00;;;;;;;;;;4924332;29;20027;-60
2022/06/22 15:25:19;;;;;;;0.00;0.00;;;;;;;;;;4924762;29;20042;-59
2022/06/22 15:27:49;;;;;;;0.17;0.17;;;;;;;;;;4923847;29;20267;-59
2022/06/22 15:30:14;;;;;;;0.00;0.00;;;;;;;;;;4929154;29;20275;-61
2022/06/22 15:33:00;;;;;;;0.65;0.25;;;;;;;;;;4928413;29;20024;-60
2022/06/22 15:35:44;;;;;;;0.00;0.00;;;;;;;;;;4925451;29;20043;-60